createdAt,value
2022-08-24T00:00:08.588Z,26.25
2022-08-24T00:02:35.257Z,26.19
2022-08-24T00:05:02.034Z,26.33
2022-08-24T00:07:29.522Z,26.13
2022-08-24T00:09:56.240Z,26.27
2022-08-24T00:12:23.293Z,26.32
2022-08-24T00:14:50.220Z,26.51
2022-08-24T00:17:17.394Z,26.46
2022-08-24T00:19:45.983Z,26.52
2022-08-24T00:22:13.304Z,26.63
2022-08-24T00:24:40.029Z,26.55
2022-08-24T00:27:07.520Z,26.45
2022-08-24T00:29:34.414Z,26.33
2022-08-24T00:32:01.127Z,26.30
2022-08-24T00:34:27.857Z,26.19
2022-08-24T00:36:54.689Z,26.07
2022-08-24T00:39:21.870Z,26.30
2022-08-24T00:41:50.228Z,26.12
2022-08-24T00:44:17.858Z,26.08
2022-08-24T00:46:49.949Z,25.60
2022-08-24T00:49:25.977Z,25.64
2022-08-24T00:52:14.398Z,25.75
2022-08-24T00:54:47.978Z,25.68
2022-08-24T00:57:16.885Z,25.59
2022-08-24T00:59:46.459Z,25.86
2022-08-24T01:02:21.806Z,25.87
2022-08-24T01:04:54.552Z,25.58
2022-08-24T01:07:23.142Z,25.51
2022-08-24T01:09:51.935Z,25.06
2022-08-24T01:12:19.001Z,25.44
2022-08-24T01:14:45.897Z,25.49
2022-08-24T01:17:33.923Z,25.24
2022-08-24T01:20:06.188Z,25.52
2022-08-24T01:22:54.598Z,25.66
2022-08-24T01:25:22.460Z,25.41
2022-08-24T01:27:49.945Z,25.71
2022-08-24T01:30:17.415Z,25.59
2022-08-24T01:32:55.824Z,25.79
2022-08-24T01:35:22.537Z,25.81
2022-08-24T01:37:50.144Z,25.62
2022-08-24T01:40:17.918Z,25.70
2022-08-24T01:42:52.458Z,25.70
2022-08-24T01:45:20.277Z,25.72
2022-08-24T01:47:46.771Z,25.60
2022-08-24T01:50:14.278Z,25.67
2022-08-24T01:53:04.007Z,25.55
2022-08-24T01:55:30.124Z,25.68
2022-08-24T01:57:57.006Z,25.64
2022-08-24T02:00:24.030Z,25.61
2022-08-24T02:02:50.662Z,25.58
2022-08-24T02:05:17.875Z,25.65
2022-08-24T02:07:45.861Z,25.46
2022-08-24T02:10:13.999Z,25.64
2022-08-24T02:12:42.325Z,25.56
2022-08-24T02:15:10.730Z,25.43
2022-08-24T02:17:37.958Z,25.53
2022-08-24T02:20:06.558Z,25.51
2022-08-24T02:22:33.232Z,25.50
2022-08-24T02:24:59.830Z,25.22
2022-08-24T02:27:26.584Z,25.46
2022-08-24T02:29:53.433Z,25.57
2022-08-24T02:32:20.528Z,25.60
2022-08-24T02:34:47.171Z,25.67
2022-08-24T02:37:14.185Z,25.65
2022-08-24T02:39:41.028Z,25.53
2022-08-24T02:42:07.806Z,25.46
2022-08-24T02:44:35.133Z,25.68
2022-08-24T02:47:01.638Z,25.52
2022-08-24T02:49:28.354Z,25.76
2022-08-24T02:51:55.493Z,25.79
2022-08-24T02:54:22.382Z,25.61
2022-08-24T02:56:49.385Z,25.71
2022-08-24T02:59:17.146Z,25.66
2022-08-24T03:01:44.890Z,25.74
2022-08-24T03:04:12.079Z,25.70
2022-08-24T03:06:38.939Z,25.58
2022-08-24T03:09:05.791Z,25.30
2022-08-24T03:11:32.419Z,25.34
2022-08-24T03:13:59.473Z,25.38
2022-08-24T03:16:27.343Z,25.15
2022-08-24T03:18:54.136Z,25.13
2022-08-24T03:21:21.100Z,25.21
2022-08-24T03:23:47.951Z,25.09
2022-08-24T03:26:15.048Z,25.26
2022-08-24T03:28:41.838Z,25.00
2022-08-24T03:31:11.708Z,24.89
2022-08-24T03:33:38.375Z,25.13
2022-08-24T03:36:05.094Z,25.16
2022-08-24T03:38:31.705Z,25.04
2022-08-24T03:40:58.209Z,24.88
2022-08-24T03:43:43.164Z,24.76
2022-08-24T03:46:12.362Z,23.95
2022-08-24T03:48:40.519Z,24.30
2022-08-24T03:51:07.974Z,24.02
2022-08-24T03:53:34.645Z,24.18
2022-08-24T03:56:07.095Z,24.05
2022-08-24T03:58:39.550Z,24.17
2022-08-24T04:01:06.359Z,23.88
2022-08-24T04:03:41.633Z,24.06
2022-08-24T04:06:09.232Z,24.10
2022-08-24T04:08:39.887Z,24.11
2022-08-24T04:11:11.322Z,24.06
2022-08-24T04:13:37.867Z,24.33
2022-08-24T04:16:09.128Z,24.28
2022-08-24T04:18:36.385Z,24.52
2022-08-24T04:21:03.324Z,24.58
2022-08-24T04:23:47.303Z,24.56
2022-08-24T04:26:15.727Z,24.46
2022-08-24T04:28:42.364Z,24.24
2022-08-24T04:31:09.103Z,24.11
2022-08-24T04:33:36.259Z,24.26
2022-08-24T04:36:07.239Z,24.34
2022-08-24T04:38:34.149Z,24.34
2022-08-24T04:41:00.719Z,24.38
2022-08-24T04:43:27.233Z,24.43
2022-08-24T04:45:53.926Z,24.54
2022-08-24T04:48:20.715Z,24.56
2022-08-24T04:50:47.308Z,24.44
2022-08-24T04:53:14.330Z,24.42
2022-08-24T04:55:49.564Z,24.34
2022-08-24T04:58:17.744Z,24.36
2022-08-24T05:00:44.870Z,24.56
2022-08-24T05:03:11.995Z,24.70
2022-08-24T05:05:44.997Z,24.67
2022-08-24T05:08:13.254Z,24.91
2022-08-24T05:10:42.951Z,24.99
2022-08-24T05:13:09.713Z,24.96
2022-08-24T05:15:38.064Z,24.94
2022-08-24T05:18:04.874Z,25.05
2022-08-24T05:20:31.404Z,25.13
2022-08-24T05:23:02.458Z,25.14
2022-08-24T05:25:30.949Z,25.04
2022-08-24T05:27:58.189Z,25.08
2022-08-24T05:30:24.750Z,25.23
2022-08-24T05:32:51.267Z,25.17
2022-08-24T05:35:18.312Z,25.36
2022-08-24T05:37:45.246Z,25.49
2022-08-24T05:40:14.346Z,25.59
2022-08-24T05:42:40.998Z,25.84
2022-08-24T05:45:08.164Z,25.52
2022-08-24T05:47:35.172Z,25.88
2022-08-24T05:50:02.151Z,25.94
2022-08-24T05:52:29.076Z,26.01
2022-08-24T05:54:57.959Z,26.19
2022-08-24T05:57:25.888Z,26.33
2022-08-24T05:59:52.729Z,26.44
2022-08-24T06:02:19.992Z,26.60
2022-08-24T06:04:46.786Z,26.74
2022-08-24T06:07:13.807Z,26.49
2022-08-24T06:09:41.191Z,26.71
2022-08-24T06:12:08.684Z,27.00
2022-08-24T06:14:36.188Z,27.21
2022-08-24T06:17:04.867Z,27.42
2022-08-24T06:19:32.564Z,27.61
2022-08-24T06:21:59.549Z,27.71
2022-08-24T06:24:45.354Z,27.88
2022-08-24T06:27:21.931Z,27.95
2022-08-24T06:29:53.661Z,28.19
2022-08-24T06:32:20.898Z,28.11
2022-08-24T06:34:47.834Z,28.27
2022-08-24T06:37:14.996Z,28.46
2022-08-24T06:39:41.871Z,28.66
2022-08-24T06:42:08.386Z,28.75
2022-08-24T06:44:35.040Z,28.79
2022-08-24T06:47:01.672Z,28.83
2022-08-24T06:49:28.292Z,28.88
2022-08-24T06:51:54.829Z,28.44
2022-08-24T06:54:21.354Z,28.30
2022-08-24T06:56:47.930Z,28.82
2022-08-24T06:59:14.522Z,28.98
2022-08-24T07:01:41.211Z,29.11
2022-08-24T07:04:07.789Z,29.44
2022-08-24T07:06:35.431Z,29.55
2022-08-24T07:09:02.419Z,29.62
2022-08-24T07:11:28.937Z,29.79
2022-08-24T07:13:55.639Z,29.97
2022-08-24T07:16:22.759Z,30.11
2022-08-24T07:18:50.559Z,29.46
2022-08-24T07:21:19.515Z,29.62
2022-08-24T07:23:50.057Z,30.08
2022-08-24T07:26:22.641Z,30.37
2022-08-24T07:28:54.266Z,30.61
2022-08-24T07:31:21.358Z,30.44
2022-08-24T07:33:48.224Z,31.05
2022-08-24T07:36:22.073Z,31.04
2022-08-24T07:38:49.121Z,31.18
2022-08-24T07:41:38.106Z,31.61
2022-08-24T07:44:02.268Z,31.74
2022-08-24T07:46:28.852Z,32.02
2022-08-24T07:49:05.105Z,32.08
2022-08-24T07:51:40.139Z,32.46
2022-08-24T07:54:13.059Z,31.02
2022-08-24T07:56:40.630Z,30.97
2022-08-24T07:59:11.062Z,31.80
2022-08-24T08:01:40.075Z,31.49
2022-08-24T08:04:06.703Z,32.19
2022-08-24T08:06:33.325Z,32.15
2022-08-24T08:09:00.196Z,32.52
2022-08-24T08:11:26.858Z,31.70
2022-08-24T08:13:54.287Z,31.14
2022-08-24T08:16:21.798Z,32.05
2022-08-24T08:18:52.356Z,32.48
2022-08-24T08:21:51.090Z,32.80
2022-08-24T08:24:21.145Z,33.33
2022-08-24T08:26:50.633Z,33.74
2022-08-24T08:29:19.027Z,33.54
2022-08-24T08:31:46.219Z,33.88
2022-08-24T08:34:13.127Z,34.07
2022-08-24T08:36:41.272Z,34.40
2022-08-24T08:39:09.503Z,33.02
2022-08-24T08:42:14.962Z,32.50
2022-08-24T08:44:48.768Z,32.75
2022-08-24T08:47:33.769Z,33.65
2022-08-24T08:50:27.183Z,34.84
2022-08-24T08:53:15.539Z,34.96
2022-08-24T08:55:57.401Z,35.80
2022-08-24T08:59:18.523Z,36.47
2022-08-24T09:02:00.583Z,37.32
2022-08-24T09:05:09.348Z,37.42
2022-08-24T09:07:48.207Z,38.33
2022-08-24T09:10:41.180Z,38.90
2022-08-24T09:13:17.374Z,39.57
2022-08-24T09:16:09.704Z,37.15
2022-08-24T09:19:14.733Z,38.11
2022-08-24T09:22:06.172Z,39.49
2022-08-24T09:24:42.689Z,40.05
2022-08-24T09:27:27.121Z,40.71
2022-08-24T09:30:13.692Z,41.32
2022-08-24T09:33:06.566Z,43.73
2022-08-24T09:35:41.121Z,48.37
2022-08-24T09:38:17.802Z,52.36
2022-08-24T09:40:55.282Z,54.54
2022-08-24T09:43:40.072Z,57.39
2022-08-24T09:46:34.754Z,59.82
2022-08-24T09:49:39.445Z,62.28
2022-08-24T09:52:36.990Z,63.71
2022-08-24T09:55:35.938Z,65.37
2022-08-24T09:58:17.847Z,64.34
2022-08-24T10:00:48.029Z,65.33
2022-08-24T10:03:23.845Z,61.62
2022-08-24T10:06:23.302Z,63.15
2022-08-24T10:09:20.595Z,64.17
2022-08-24T10:12:19.898Z,65.76
2022-08-24T10:15:02.171Z,65.65
2022-08-24T10:17:58.245Z,67.35
2022-08-24T10:20:43.029Z,67.24
2022-08-24T10:23:30.378Z,66.92
2022-08-24T10:26:04.424Z,66.92
2022-08-24T10:28:55.392Z,67.45
2022-08-24T10:31:43.606Z,65.09
2022-08-24T10:34:23.888Z,65.66
2022-08-24T10:36:56.548Z,67.01
2022-08-24T10:39:43.309Z,67.64
2022-08-24T10:42:48.438Z,67.66
2022-08-24T10:45:35.315Z,68.85
2022-08-24T10:48:36.799Z,67.24
2022-08-24T10:51:03.325Z,66.63
2022-08-24T10:53:32.209Z,64.92
2022-08-24T10:56:12.169Z,65.82
2022-08-24T10:58:52.394Z,64.02
2022-08-24T11:01:26.811Z,65.13
2022-08-24T11:03:59.216Z,65.05
2022-08-24T11:06:30.829Z,65.20
2022-08-24T11:08:59.683Z,66.71
2022-08-24T11:11:40.480Z,67.03
2022-08-24T11:14:29.024Z,67.04
2022-08-24T11:17:14.775Z,66.53
2022-08-24T11:19:42.511Z,66.53
2022-08-24T11:23:00.018Z,65.69
2022-08-24T11:25:30.009Z,65.34
2022-08-24T11:28:21.138Z,62.12
2022-08-24T11:30:48.496Z,63.83
2022-08-24T11:33:30.410Z,62.13
2022-08-24T11:35:57.930Z,62.62
2022-08-24T11:38:29.059Z,63.31
2022-08-24T11:41:12.883Z,61.21
2022-08-24T11:44:24.959Z,61.74
2022-08-24T11:47:32.746Z,59.89
2022-08-24T11:50:27.186Z,61.99
2022-08-24T11:53:29.180Z,61.35
2022-08-24T11:56:21.452Z,60.52
2022-08-24T11:59:07.868Z,57.19
2022-08-24T12:01:42.892Z,58.37
2022-08-24T12:04:30.427Z,60.72
2022-08-24T12:07:01.770Z,62.97
2022-08-24T12:09:40.015Z,61.40
2022-08-24T12:12:14.579Z,58.44
2022-08-24T12:15:02.173Z,61.07
2022-08-24T12:17:44.726Z,60.68
2022-08-24T12:20:27.957Z,56.54
2022-08-24T12:22:59.184Z,49.51
2022-08-24T12:25:45.808Z,45.69
2022-08-24T12:28:14.972Z,44.28
2022-08-24T12:30:41.580Z,41.53
2022-08-24T12:33:12.073Z,41.77
2022-08-24T12:35:38.568Z,40.99
2022-08-24T12:38:26.640Z,40.29
2022-08-24T12:41:14.646Z,39.85
2022-08-24T12:43:50.008Z,39.69
2022-08-24T12:46:21.862Z,38.06
2022-08-24T12:48:56.436Z,37.13
2022-08-24T12:51:29.231Z,37.33
2022-08-24T12:54:03.696Z,37.78
2022-08-24T12:56:48.479Z,38.12
2022-08-24T12:59:21.718Z,38.22
2022-08-24T13:02:01.623Z,37.86
2022-08-24T13:04:28.248Z,38.13
2022-08-24T13:07:09.840Z,38.33
2022-08-24T13:09:42.894Z,37.95
2022-08-24T13:12:44.086Z,37.91
2022-08-24T13:15:23.380Z,37.65
2022-08-24T13:17:57.758Z,37.74
2022-08-24T13:20:34.402Z,37.55
2022-08-24T13:23:13.142Z,38.01
2022-08-24T13:25:51.755Z,37.73
2022-08-24T13:28:21.476Z,38.00
2022-08-24T13:30:54.008Z,38.18
2022-08-24T13:33:34.901Z,38.16
2022-08-24T13:36:04.298Z,37.82
2022-08-24T13:38:33.835Z,38.29
2022-08-24T13:41:29.294Z,38.01
2022-08-24T13:43:55.823Z,38.09
2022-08-24T13:46:42.065Z,37.78
2022-08-24T13:49:15.823Z,38.39
2022-08-24T13:51:46.029Z,38.55
2022-08-24T13:54:25.162Z,38.60
2022-08-24T13:57:03.138Z,38.79
2022-08-24T13:59:52.913Z,38.35
2022-08-24T14:02:28.455Z,38.85
2022-08-24T14:05:07.837Z,38.82
2022-08-24T14:07:56.592Z,38.56
2022-08-24T14:10:29.909Z,39.00
2022-08-24T14:13:05.114Z,38.43
2022-08-24T14:16:11.665Z,38.93
2022-08-24T14:18:59.039Z,39.09
2022-08-24T14:21:40.195Z,38.85
2022-08-24T14:24:24.205Z,38.77
2022-08-24T14:27:04.851Z,38.73
2022-08-24T14:29:34.237Z,38.97
2022-08-24T14:32:20.692Z,39.81
2022-08-24T14:35:14.364Z,39.02
2022-08-24T14:38:12.634Z,38.44
2022-08-24T14:40:51.594Z,38.55
2022-08-24T14:43:41.210Z,38.65
2022-08-24T14:46:17.027Z,37.74
2022-08-24T14:49:25.755Z,37.44
2022-08-24T14:51:54.226Z,37.50
2022-08-24T14:54:49.271Z,37.48
2022-08-24T14:57:27.943Z,37.87
2022-08-24T15:00:34.925Z,38.27
2022-08-24T15:03:12.025Z,37.23
2022-08-24T15:06:25.099Z,37.49
2022-08-24T15:08:47.045Z,37.44
2022-08-24T15:11:17.777Z,38.29
2022-08-24T15:13:49.067Z,38.29
2022-08-24T15:16:24.344Z,38.04
2022-08-24T15:18:58.829Z,37.99
2022-08-24T15:21:29.826Z,38.29
2022-08-24T15:24:10.597Z,37.72
2022-08-24T15:26:52.850Z,38.53
2022-08-24T15:29:22.706Z,38.46
2022-08-24T15:32:16.001Z,38.45
2022-08-24T15:34:49.801Z,38.62
2022-08-24T15:37:26.601Z,38.70
2022-08-24T15:39:54.428Z,38.24
2022-08-24T15:42:21.418Z,37.68
2022-08-24T15:44:50.044Z,37.98
2022-08-24T15:47:35.322Z,37.25
2022-08-24T15:50:27.204Z,37.73
2022-08-24T15:53:14.170Z,37.83
2022-08-24T15:55:43.513Z,37.14
2022-08-24T15:58:34.444Z,37.57
2022-08-24T16:01:38.264Z,37.59
2022-08-24T16:04:13.918Z,37.27
2022-08-24T16:06:46.855Z,37.17
2022-08-24T16:09:22.426Z,37.30
2022-08-24T16:12:17.433Z,36.84
2022-08-24T16:14:47.647Z,37.24
2022-08-24T16:17:26.615Z,37.03
2022-08-24T16:19:59.187Z,37.32
2022-08-24T16:22:33.847Z,37.13
2022-08-24T16:25:23.929Z,36.40
2022-08-24T16:27:56.562Z,36.54
2022-08-24T16:30:28.089Z,36.74
2022-08-24T16:32:56.960Z,36.47
2022-08-24T16:35:25.019Z,36.37
2022-08-24T16:37:52.788Z,36.55
2022-08-24T16:40:19.527Z,36.24
2022-08-24T16:42:46.221Z,36.40
2022-08-24T16:45:18.279Z,36.15
2022-08-24T16:47:46.934Z,36.17
2022-08-24T16:50:16.815Z,35.81
2022-08-24T16:52:43.515Z,36.02
2022-08-24T16:55:10.394Z,36.11
2022-08-24T16:57:41.093Z,36.01
2022-08-24T17:00:10.914Z,35.53
2022-08-24T17:02:37.692Z,35.45
2022-08-24T17:05:04.898Z,35.51
2022-08-24T17:07:32.130Z,35.53
2022-08-24T17:10:01.188Z,35.36
2022-08-24T17:12:28.017Z,35.49
2022-08-24T17:14:54.912Z,35.28
2022-08-24T17:17:24.283Z,35.06
2022-08-24T17:19:53.369Z,35.21
2022-08-24T17:22:20.824Z,34.80
2022-08-24T17:24:47.477Z,35.14
2022-08-24T17:27:14.525Z,34.79
2022-08-24T17:29:43.307Z,35.03
2022-08-24T17:32:10.200Z,34.92
2022-08-24T17:34:36.997Z,35.01
2022-08-24T17:37:03.930Z,34.64
2022-08-24T17:39:30.937Z,34.82
2022-08-24T17:41:58.712Z,34.82
2022-08-24T17:44:27.554Z,35.05
2022-08-24T17:46:57.795Z,34.71
2022-08-24T17:49:25.711Z,34.63
2022-08-24T17:51:53.637Z,34.35
2022-08-24T17:54:20.173Z,34.68
2022-08-24T17:56:48.720Z,34.64
2022-08-24T17:59:24.754Z,34.72
2022-08-24T18:02:17.625Z,34.66
2022-08-24T18:04:44.350Z,34.24
2022-08-24T18:07:16.680Z,34.25
2022-08-24T18:10:00.293Z,34.06
2022-08-24T18:12:27.314Z,34.27
2022-08-24T18:14:54.145Z,34.17
2022-08-24T18:17:34.600Z,33.83
2022-08-24T18:20:01.212Z,33.88
2022-08-24T18:22:27.858Z,33.99
2022-08-24T18:24:54.600Z,33.76
2022-08-24T18:27:26.316Z,33.72
2022-08-24T18:29:57.758Z,33.51
2022-08-24T18:32:30.087Z,33.52
2022-08-24T18:34:57.966Z,33.52
2022-08-24T18:37:25.045Z,33.19
2022-08-24T18:39:54.156Z,33.38
2022-08-24T18:42:21.670Z,33.40
2022-08-24T18:44:48.571Z,33.17
2022-08-24T18:47:15.550Z,33.20
2022-08-24T18:49:42.103Z,33.24
2022-08-24T18:52:10.068Z,33.16
2022-08-24T18:54:41.362Z,33.10
2022-08-24T18:57:08.754Z,32.91
2022-08-24T18:59:36.010Z,33.01
2022-08-24T19:02:31.891Z,32.81
2022-08-24T19:05:15.301Z,32.94
2022-08-24T19:07:44.750Z,32.87
2022-08-24T19:10:15.441Z,32.80
2022-08-24T19:12:46.618Z,32.74
2022-08-24T19:15:32.109Z,32.63
2022-08-24T19:18:00.803Z,32.49
2022-08-24T19:20:27.484Z,32.49
2022-08-24T19:23:00.695Z,32.10
2022-08-24T19:25:27.992Z,32.30
2022-08-24T19:27:58.549Z,32.00
2022-08-24T19:30:27.914Z,31.69
2022-08-24T19:32:58.460Z,31.59
2022-08-24T19:35:25.133Z,31.45
2022-08-24T19:37:51.954Z,31.36
2022-08-24T19:40:20.966Z,31.30
2022-08-24T19:42:50.812Z,31.29
2022-08-24T19:45:42.663Z,31.37
2022-08-24T19:48:10.227Z,31.79
2022-08-24T19:50:37.213Z,31.70
2022-08-24T19:53:05.270Z,31.71
2022-08-24T19:55:32.623Z,31.67
2022-08-24T19:58:26.795Z,31.51
2022-08-24T20:01:05.781Z,31.49
2022-08-24T20:03:32.420Z,31.23
2022-08-24T20:05:58.998Z,31.43
2022-08-24T20:08:25.602Z,31.24
2022-08-24T20:10:55.984Z,31.46
2022-08-24T20:13:22.590Z,31.39
2022-08-24T20:15:49.334Z,31.21
2022-08-24T20:18:16.283Z,31.08
2022-08-24T20:20:43.262Z,31.25
2022-08-24T20:23:09.811Z,31.28
2022-08-24T20:25:37.403Z,31.07
2022-08-24T20:28:28.790Z,31.06
2022-08-24T20:30:52.105Z,31.09
2022-08-24T20:33:21.097Z,30.98
2022-08-24T20:35:48.402Z,30.93
2022-08-24T20:38:17.005Z,30.78
2022-08-24T20:40:43.882Z,30.92
2022-08-24T20:43:12.999Z,30.65
2022-08-24T20:45:41.636Z,30.77
2022-08-24T20:48:11.895Z,30.70
2022-08-24T20:50:38.983Z,30.57
2022-08-24T20:53:06.163Z,30.54
2022-08-24T20:55:32.955Z,30.52
2022-08-24T20:58:03.159Z,30.58
2022-08-24T21:00:30.173Z,30.54
2022-08-24T21:02:58.119Z,30.43
2022-08-24T21:05:25.217Z,30.46
2022-08-24T21:07:52.040Z,30.46
2022-08-24T21:10:21.437Z,30.36
2022-08-24T21:12:51.945Z,30.37
2022-08-24T21:15:18.894Z,30.32
2022-08-24T21:17:45.659Z,30.25
2022-08-24T21:20:14.813Z,30.19
2022-08-24T21:22:41.459Z,30.08
2022-08-24T21:25:09.981Z,29.97
2022-08-24T21:27:38.429Z,29.99
2022-08-24T21:30:09.409Z,30.01
2022-08-24T21:32:54.493Z,29.45
2022-08-24T21:35:21.721Z,29.37
2022-08-24T21:37:50.099Z,29.49
2022-08-24T21:40:16.766Z,29.47
2022-08-24T21:42:43.317Z,29.44
2022-08-24T21:45:10.512Z,29.40
2022-08-24T21:47:37.295Z,29.26
2022-08-24T21:50:05.057Z,29.24
2022-08-24T21:52:31.782Z,29.40
2022-08-24T21:54:59.394Z,29.31
2022-08-24T21:57:27.586Z,28.90
2022-08-24T21:59:54.249Z,29.39
2022-08-24T22:02:20.861Z,29.40
2022-08-24T22:04:56.206Z,29.28
2022-08-24T22:07:24.263Z,29.39
2022-08-24T22:09:50.910Z,29.38
2022-08-24T22:12:18.180Z,29.07
2022-08-24T22:14:44.911Z,29.36
2022-08-24T22:17:11.629Z,29.33
2022-08-24T22:19:38.196Z,29.41
2022-08-24T22:22:05.197Z,29.22
2022-08-24T22:24:31.851Z,29.41
2022-08-24T22:26:58.430Z,29.35
2022-08-24T22:29:24.944Z,29.03
2022-08-24T22:31:52.025Z,29.15
2022-08-24T22:34:20.735Z,29.26
2022-08-24T22:36:48.327Z,29.17
2022-08-24T22:39:14.935Z,29.06
2022-08-24T22:41:41.609Z,28.98
2022-08-24T22:44:20.863Z,28.94
2022-08-24T22:46:56.847Z,29.07
2022-08-24T22:49:25.983Z,29.15
2022-08-24T22:51:52.797Z,28.99
2022-08-24T22:54:21.293Z,29.13
2022-08-24T22:56:51.662Z,29.11
2022-08-24T22:59:23.983Z,29.07
2022-08-24T23:01:52.327Z,29.00
2022-08-24T23:04:23.316Z,28.92
2022-08-24T23:06:50.803Z,28.92
2022-08-24T23:09:18.084Z,28.88
2022-08-24T23:11:45.579Z,28.43
2022-08-24T23:14:13.542Z,28.42
2022-08-24T23:16:44.853Z,28.47
2022-08-24T23:19:30.189Z,28.45
2022-08-24T23:21:56.881Z,28.48
2022-08-24T23:24:23.681Z,28.36
2022-08-24T23:26:50.360Z,28.44
2022-08-24T23:29:17.070Z,28.21
2022-08-24T23:31:44.829Z,28.35
2022-08-24T23:34:11.652Z,28.18
2022-08-24T23:36:38.498Z,28.02
2022-08-24T23:39:06.830Z,28.11
2022-08-24T23:41:35.804Z,28.09
2022-08-24T23:44:05.458Z,28.04
2022-08-24T23:46:32.111Z,28.10
2022-08-24T23:49:03.262Z,28.03
2022-08-24T23:51:30.424Z,27.90
2022-08-24T23:53:57.578Z,28.11
2022-08-24T23:56:31.632Z,28.11
2022-08-24T23:59:01.921Z,28.06
